createdAt,value
2023-03-18T10:23:57.421Z,50.66
2023-03-18T10:25:24.092Z,50.14
2023-03-18T10:26:57.786Z,49.38
2023-03-18T10:28:26.171Z,48.80
2023-03-18T10:29:43.918Z,48.94
2023-03-18T10:31:05.028Z,48.44
2023-03-18T10:32:24.560Z,48.85
2023-03-18T10:33:40.570Z,48.69
2023-03-18T10:35:16.698Z,48.23
2023-03-18T10:36:29.495Z,47.28
2023-03-18T10:37:35.203Z,47.63
2023-03-18T10:38:44.948Z,47.75
2023-03-18T10:39:49.463Z,47.15
2023-03-18T10:40:53.148Z,46.99
2023-03-18T10:42:01.154Z,46.94
2023-03-18T10:43:04.668Z,47.34
2023-03-18T10:44:27.779Z,47.89
2023-03-18T10:45:34.584Z,48.02
2023-03-18T10:46:38.764Z,47.63
2023-03-18T10:47:49.416Z,46.96
2023-03-18T10:48:59.247Z,47.34
2023-03-18T10:50:20.763Z,47.65
2023-03-18T10:51:26.568Z,47.80
2023-03-18T10:52:39.725Z,47.88
2023-03-18T10:53:59.432Z,47.87
2023-03-18T10:55:02.348Z,46.99
2023-03-18T10:56:08.872Z,47.28
2023-03-18T10:57:16.888Z,47.28
2023-03-18T10:58:20.156Z,48.05
2023-03-18T10:59:25.904Z,47.74
2023-03-18T11:00:34.123Z,47.65
2023-03-18T11:01:38.789Z,47.73
2023-03-18T11:02:42.288Z,47.37
2023-03-18T11:04:01.349Z,47.54
2023-03-18T11:05:22.368Z,47.29
2023-03-18T11:06:48.003Z,47.41
2023-03-18T11:07:59.860Z,46.85
2023-03-18T11:09:09.197Z,47.02
2023-03-18T11:10:15.431Z,47.58
2023-03-18T11:11:34.822Z,47.70
2023-03-18T11:12:37.733Z,47.31
2023-03-18T11:13:47.122Z,47.56
2023-03-18T11:14:51.512Z,47.11
2023-03-18T11:15:57.070Z,47.32
2023-03-18T11:17:03.597Z,46.74
2023-03-18T11:18:18.442Z,46.86
2023-03-18T11:19:25.635Z,47.05
2023-03-18T11:20:47.547Z,46.52
2023-03-18T11:22:04.494Z,47.01
2023-03-18T11:23:18.166Z,47.30
2023-03-18T11:24:42.962Z,46.00
2023-03-18T11:25:48.859Z,46.57
2023-03-18T11:26:57.213Z,46.78
2023-03-18T11:28:06.200Z,46.40
2023-03-18T11:29:18.756Z,46.47
2023-03-18T11:30:34.460Z,46.91
2023-03-18T11:31:50.867Z,46.70
2023-03-18T11:33:11.388Z,46.61
2023-03-18T11:34:22.252Z,46.82
2023-03-18T11:35:33.966Z,46.84
2023-03-18T11:36:38.197Z,46.60
2023-03-18T11:37:41.732Z,45.76
2023-03-18T11:38:55.821Z,46.31
2023-03-18T11:40:13.590Z,46.64
2023-03-18T11:41:25.119Z,46.35
2023-03-18T11:42:32.738Z,46.41
2023-03-18T11:43:38.293Z,45.47
2023-03-18T11:44:41.308Z,45.45
2023-03-18T11:46:10.981Z,45.36
2023-03-18T11:47:22.190Z,45.43
2023-03-18T11:48:43.773Z,45.93
2023-03-18T11:49:46.585Z,45.64
2023-03-18T11:51:05.393Z,45.44
2023-03-18T11:52:30.239Z,45.55
2023-03-18T11:53:42.812Z,46.26
2023-03-18T11:54:49.282Z,46.04
2023-03-18T11:56:01.707Z,46.15
2023-03-18T11:57:25.961Z,46.28
2023-03-18T11:58:50.426Z,45.93
2023-03-18T12:00:21.304Z,46.12
2023-03-18T12:01:37.365Z,46.10
2023-03-18T12:02:58.922Z,46.18
2023-03-18T12:04:29.827Z,46.60
2023-03-18T12:05:55.341Z,45.91
2023-03-18T12:07:38.356Z,46.13
2023-03-18T12:08:50.249Z,45.71
2023-03-18T12:10:13.475Z,45.92
2023-03-18T12:11:32.694Z,45.87
2023-03-18T12:13:06.583Z,45.62
2023-03-18T12:14:23.438Z,45.39
2023-03-18T12:15:39.294Z,45.10
2023-03-18T12:16:59.629Z,45.46
2023-03-18T12:18:17.711Z,45.47
2023-03-18T12:19:55.139Z,44.99
2023-03-18T12:21:30.948Z,44.97
2023-03-18T12:22:43.036Z,45.32
2023-03-18T12:23:58.497Z,45.01
2023-03-18T12:25:16.162Z,45.25
2023-03-18T12:26:31.077Z,44.58
2023-03-18T12:27:53.633Z,44.16
2023-03-18T12:29:09.733Z,43.94
2023-03-18T12:30:32.452Z,43.73
2023-03-18T12:31:57.226Z,43.33
2023-03-18T12:33:15.016Z,43.19
2023-03-18T12:34:47.439Z,43.08
2023-03-18T12:36:04.486Z,43.49
2023-03-18T12:37:25.137Z,43.33
2023-03-18T12:38:53.376Z,43.05
2023-03-18T12:40:19.956Z,43.16
2023-03-18T12:41:36.035Z,43.48
2023-03-18T12:43:11.167Z,42.98
2023-03-18T12:44:40.372Z,43.28
2023-03-18T12:45:47.775Z,43.54
2023-03-18T12:47:07.952Z,43.26
2023-03-18T12:48:40.674Z,42.95
2023-03-18T12:49:57.474Z,42.81
2023-03-18T12:51:11.426Z,42.73
2023-03-18T12:52:35.954Z,43.06
2023-03-18T12:53:49.101Z,43.23
2023-03-18T12:55:07.878Z,43.11
2023-03-18T12:56:18.883Z,42.45
2023-03-18T12:57:43.567Z,42.27
2023-03-18T12:58:52.553Z,42.46
2023-03-18T13:00:02.315Z,42.67
2023-03-18T13:01:18.252Z,42.26
2023-03-18T13:02:41.328Z,42.16
2023-03-18T13:04:11.925Z,42.40
2023-03-18T13:05:24.779Z,41.75
2023-03-18T13:06:33.817Z,41.76
2023-03-18T13:07:43.325Z,42.21
2023-03-18T13:09:01.780Z,42.20
2023-03-18T13:10:23.504Z,42.25
2023-03-18T13:11:29.451Z,41.96
2023-03-18T13:12:39.553Z,42.00
2023-03-18T13:13:48.480Z,42.08
2023-03-18T13:15:29.824Z,41.61
2023-03-18T13:16:37.673Z,41.81
2023-03-18T13:17:44.789Z,42.05
2023-03-18T13:18:53.091Z,42.17
2023-03-18T13:20:01.379Z,41.80
2023-03-18T13:21:05.836Z,41.97
2023-03-18T13:22:11.450Z,42.40
2023-03-18T13:23:25.897Z,42.33
2023-03-18T13:24:43.393Z,42.72
2023-03-18T13:25:46.293Z,42.70
2023-03-18T13:27:01.787Z,42.69
2023-03-18T13:28:19.907Z,42.67
2023-03-18T13:29:38.190Z,42.91
2023-03-18T13:30:57.927Z,43.20
2023-03-18T13:32:22.925Z,42.70
2023-03-18T13:33:28.735Z,42.70
2023-03-18T13:34:35.497Z,42.80
2023-03-18T13:35:54.641Z,42.71
2023-03-18T13:37:30.661Z,42.97
2023-03-18T13:38:47.241Z,43.22
2023-03-18T13:40:19.241Z,43.50
2023-03-18T13:41:52.809Z,43.50
2023-03-18T13:43:04.304Z,43.32
2023-03-18T13:44:18.144Z,43.41
2023-03-18T13:45:24.391Z,43.48
2023-03-18T13:46:31.727Z,43.22
2023-03-18T13:47:38.037Z,43.41
2023-03-18T13:48:41.524Z,43.70
2023-03-18T13:49:45.168Z,43.68
2023-03-18T13:50:50.995Z,43.86
2023-03-18T13:51:58.588Z,43.49
2023-03-18T13:53:04.735Z,43.57
2023-03-18T13:54:15.617Z,43.89
2023-03-18T13:55:30.742Z,43.99
2023-03-18T13:56:48.793Z,44.35
2023-03-18T13:57:58.837Z,44.31
2023-03-18T13:59:06.591Z,43.89
2023-03-18T14:00:23.875Z,44.05
2023-03-18T14:01:29.262Z,44.35
2023-03-18T14:02:41.859Z,44.11
2023-03-18T14:03:44.744Z,44.08
2023-03-18T14:04:50.512Z,43.62
2023-03-18T14:06:08.941Z,43.80
2023-03-18T14:07:14.666Z,44.02
2023-03-18T14:08:35.086Z,43.84
2023-03-18T14:09:51.410Z,44.07
2023-03-18T14:11:16.812Z,43.82
2023-03-18T14:12:35.195Z,43.72
2023-03-18T14:13:38.098Z,44.15
2023-03-18T14:14:57.024Z,43.89
2023-03-18T14:16:10.786Z,44.27
2023-03-18T14:17:33.739Z,44.08
2023-03-18T14:18:37.816Z,44.28
2023-03-18T14:19:40.788Z,44.23
2023-03-18T14:20:44.235Z,44.56
2023-03-18T14:21:53.119Z,44.66
2023-03-18T14:23:27.813Z,44.71
2023-03-18T14:24:31.115Z,44.54
2023-03-18T14:25:41.458Z,44.68
2023-03-18T14:26:59.412Z,44.68
2023-03-18T14:28:09.293Z,44.62
2023-03-18T14:29:22.557Z,44.65
2023-03-18T14:30:32.072Z,44.69
2023-03-18T14:31:41.769Z,44.49
2023-03-18T14:32:57.621Z,44.54
2023-03-18T14:34:23.095Z,44.37
2023-03-18T14:35:29.254Z,44.30
2023-03-18T14:36:54.109Z,43.89
2023-03-18T14:38:06.499Z,44.21
2023-03-18T14:39:16.824Z,44.28
2023-03-18T14:40:20.559Z,44.23
2023-03-18T14:41:28.976Z,44.05
2023-03-18T14:42:59.726Z,44.16
2023-03-18T14:44:09.136Z,44.24
2023-03-18T14:45:24.984Z,43.80
2023-03-18T14:46:34.280Z,43.87
2023-03-18T14:47:52.422Z,43.93
2023-03-18T14:48:55.377Z,43.98
2023-03-18T14:50:05.869Z,44.16
2023-03-18T14:51:14.265Z,44.18
2023-03-18T14:52:37.725Z,44.39
2023-03-18T14:53:48.995Z,44.10
2023-03-18T14:54:55.029Z,44.12
2023-03-18T14:55:59.260Z,44.23
2023-03-18T14:57:04.333Z,44.45
2023-03-18T14:58:16.200Z,44.31
2023-03-18T14:59:19.304Z,44.31
2023-03-18T15:00:24.955Z,44.35
2023-03-18T15:01:39.719Z,44.08
2023-03-18T15:02:44.644Z,44.38
2023-03-18T15:03:52.250Z,44.50
2023-03-18T15:04:59.315Z,44.52
2023-03-18T15:06:05.935Z,44.59
2023-03-18T15:07:09.440Z,44.60
2023-03-18T15:08:19.571Z,44.59
2023-03-18T15:09:28.408Z,44.74
2023-03-18T15:10:32.910Z,44.74
2023-03-18T15:11:41.588Z,44.72
2023-03-18T15:12:44.522Z,44.83
2023-03-18T15:13:47.421Z,44.88
2023-03-18T15:14:50.298Z,44.97
2023-03-18T15:15:56.780Z,44.88
2023-03-18T15:17:02.274Z,44.89
2023-03-18T15:18:24.775Z,44.89
2023-03-18T15:19:29.034Z,44.97
2023-03-18T15:20:36.227Z,45.41
2023-03-18T15:21:39.423Z,45.12
2023-03-18T15:22:43.489Z,45.37
2023-03-18T15:23:50.279Z,45.36
2023-03-18T15:24:59.588Z,45.33
2023-03-18T15:26:07.732Z,45.43
2023-03-18T15:27:19.539Z,45.45
2023-03-18T15:28:24.286Z,45.46
2023-03-18T15:29:34.062Z,45.54
2023-03-18T15:30:38.298Z,45.86
2023-03-18T15:31:45.022Z,45.93
2023-03-18T15:32:50.063Z,45.82
2023-03-18T15:34:07.922Z,45.74
2023-03-18T15:35:10.950Z,45.96
2023-03-18T15:36:16.845Z,46.05
2023-03-18T15:37:26.087Z,45.85
2023-03-18T15:38:31.128Z,46.02
2023-03-18T15:39:39.920Z,45.99
2023-03-18T15:41:11.991Z,46.14
2023-03-18T15:42:17.720Z,46.28
2023-03-18T15:43:40.205Z,46.30
2023-03-18T15:44:46.301Z,46.42
2023-03-18T15:45:55.895Z,46.47
2023-03-18T15:47:18.594Z,46.43
2023-03-18T15:48:30.970Z,46.47
2023-03-18T15:50:04.607Z,46.48
2023-03-18T15:51:24.905Z,46.42
2023-03-18T15:52:33.564Z,46.43
2023-03-18T15:53:44.808Z,46.62
2023-03-18T15:54:48.179Z,46.82
2023-03-18T15:55:56.749Z,46.99
2023-03-18T15:57:10.924Z,46.96
2023-03-18T15:58:22.876Z,46.79
2023-03-18T15:59:31.315Z,47.17
2023-03-18T16:00:35.050Z,47.04
2023-03-18T16:01:37.925Z,47.22
2023-03-18T16:02:41.808Z,47.12
2023-03-18T16:03:47.022Z,47.13
2023-03-18T16:04:50.475Z,47.28
2023-03-18T16:05:54.110Z,47.14
2023-03-18T16:06:57.433Z,47.37
2023-03-18T16:08:00.503Z,47.40
2023-03-18T16:09:15.732Z,47.47
2023-03-18T16:10:23.087Z,47.35
2023-03-18T16:11:26.494Z,47.46
2023-03-18T16:12:31.759Z,47.43
2023-03-18T16:13:36.507Z,47.54
2023-03-18T16:14:42.508Z,47.74
2023-03-18T16:15:46.090Z,47.70
2023-03-18T16:16:49.675Z,47.53
2023-03-18T16:17:54.363Z,47.65
2023-03-18T16:18:59.319Z,47.66
2023-03-18T16:20:04.279Z,47.69
2023-03-18T16:21:07.721Z,47.90
2023-03-18T16:22:10.621Z,47.72
2023-03-18T16:23:15.444Z,47.98
2023-03-18T16:24:18.439Z,47.99
2023-03-18T16:25:23.360Z,47.92
2023-03-18T16:26:26.503Z,47.96
2023-03-18T16:27:40.645Z,48.02
2023-03-18T16:28:47.075Z,48.16
2023-03-18T16:29:51.128Z,48.01
2023-03-18T16:30:56.325Z,48.12
2023-03-18T16:32:03.156Z,48.01
2023-03-18T16:33:13.738Z,48.38
2023-03-18T16:34:21.626Z,48.34
2023-03-18T16:35:33.426Z,48.40
2023-03-18T16:36:36.603Z,48.47
2023-03-18T16:37:39.522Z,48.57
2023-03-18T16:38:42.342Z,48.47
2023-03-18T16:39:45.142Z,48.59
2023-03-18T16:40:47.925Z,48.55
2023-03-18T16:41:52.371Z,48.70
2023-03-18T16:42:56.009Z,48.60
2023-03-18T16:43:58.957Z,48.70
2023-03-18T16:45:01.852Z,48.59
2023-03-18T16:46:05.733Z,48.90
2023-03-18T16:47:21.207Z,48.62
2023-03-18T16:48:26.760Z,48.66
2023-03-18T16:49:33.116Z,48.86
2023-03-18T16:50:38.793Z,48.84
2023-03-18T16:51:41.799Z,48.83
2023-03-18T16:52:45.420Z,48.87
2023-03-18T16:53:48.453Z,48.96
2023-03-18T16:54:51.308Z,48.91
2023-03-18T16:55:58.375Z,49.28
2023-03-18T16:57:04.435Z,49.13
2023-03-18T16:58:13.538Z,49.10
2023-03-18T16:59:17.705Z,49.15
2023-03-18T17:00:30.777Z,49.22
2023-03-18T17:01:43.369Z,49.26
2023-03-18T17:02:52.549Z,49.44
2023-03-18T17:03:55.408Z,49.29
2023-03-18T17:04:59.059Z,49.45
2023-03-18T17:06:02.045Z,49.78
2023-03-18T17:07:05.272Z,49.36
2023-03-18T17:08:10.845Z,49.57
2023-03-18T17:09:13.938Z,49.66
2023-03-18T17:10:20.418Z,49.78
2023-03-18T17:11:23.708Z,49.71
2023-03-18T17:12:29.068Z,49.57
2023-03-18T17:13:37.613Z,49.51
2023-03-18T17:14:43.945Z,49.91
2023-03-18T17:15:46.972Z,49.67
2023-03-18T17:16:50.001Z,49.99
2023-03-18T17:17:57.999Z,49.83
2023-03-18T17:19:01.773Z,49.89
2023-03-18T17:20:15.911Z,50.04
2023-03-18T17:21:18.817Z,50.18
2023-03-18T17:22:28.404Z,49.99
2023-03-18T17:23:31.284Z,50.02
2023-03-18T17:25:06.232Z,50.35
2023-03-18T17:26:13.220Z,50.18
2023-03-18T17:27:23.830Z,50.17
2023-03-18T17:28:38.058Z,50.57
2023-03-18T17:29:41.124Z,50.60
2023-03-18T17:30:44.088Z,50.59
2023-03-18T17:31:46.954Z,50.71
2023-03-18T17:32:50.233Z,50.54
2023-03-18T17:33:53.056Z,50.68
2023-03-18T17:34:56.343Z,50.87
2023-03-18T17:36:01.711Z,50.97
2023-03-18T17:37:04.719Z,50.69
2023-03-18T17:38:09.175Z,50.65
2023-03-18T17:39:13.486Z,50.57
2023-03-18T17:40:18.985Z,50.93
2023-03-18T17:41:21.910Z,50.78
2023-03-18T17:42:34.699Z,50.86
2023-03-18T17:43:38.046Z,51.13
2023-03-18T17:44:41.254Z,50.57
2023-03-18T17:45:44.129Z,50.98
2023-03-18T17:46:47.237Z,50.99
2023-03-18T17:47:50.380Z,51.12
2023-03-18T17:48:53.147Z,51.02
2023-03-18T17:49:55.960Z,51.13
2023-03-18T17:51:01.350Z,51.12
2023-03-18T17:52:04.355Z,51.23
2023-03-18T17:53:20.763Z,51.21
2023-03-18T17:54:25.460Z,51.21
2023-03-18T17:55:28.725Z,51.10
2023-03-18T17:56:31.578Z,51.16
2023-03-18T17:57:34.318Z,51.22
2023-03-18T17:58:38.644Z,51.40
2023-03-18T17:59:41.500Z,51.15
2023-03-18T18:00:46.409Z,51.44
2023-03-18T18:01:51.375Z,51.56
2023-03-18T18:02:54.856Z,51.32
2023-03-18T18:04:01.800Z,51.12
2023-03-18T18:05:04.919Z,51.48
2023-03-18T18:06:11.781Z,51.36
2023-03-18T18:07:21.647Z,51.33
2023-03-18T18:08:25.767Z,51.23
2023-03-18T18:09:29.246Z,51.47
2023-03-18T18:10:32.207Z,51.66
2023-03-18T18:11:38.106Z,51.31
2023-03-18T18:12:43.405Z,51.29
2023-03-18T18:13:47.492Z,51.28
2023-03-18T18:14:50.291Z,51.68
2023-03-18T18:15:53.395Z,51.54
2023-03-18T18:16:57.009Z,51.60
2023-03-18T18:18:02.318Z,51.82
2023-03-18T18:19:05.160Z,51.51
2023-03-18T18:20:13.308Z,51.73
2023-03-18T18:21:19.948Z,51.58
2023-03-18T18:22:26.533Z,51.85
2023-03-18T18:23:33.710Z,51.58
2023-03-18T18:24:36.605Z,51.71
2023-03-18T18:25:39.500Z,51.91
2023-03-18T18:26:42.380Z,51.77
2023-03-18T18:27:46.561Z,51.92
2023-03-18T18:28:51.686Z,51.92
2023-03-18T18:29:55.074Z,51.56
2023-03-18T18:30:58.913Z,51.80
2023-03-18T18:32:02.360Z,51.83
2023-03-18T18:33:05.236Z,51.89
2023-03-18T18:34:08.797Z,51.76
2023-03-18T18:35:20.472Z,51.84
2023-03-18T18:36:28.194Z,51.94
2023-03-18T18:37:31.781Z,52.14
2023-03-18T18:38:35.565Z,52.45
2023-03-18T18:39:38.388Z,52.33
2023-03-18T18:40:41.463Z,52.26
2023-03-18T18:41:46.314Z,52.22
2023-03-18T18:42:50.529Z,52.37
2023-03-18T18:43:53.347Z,52.17
2023-03-18T18:44:56.239Z,52.22
2023-03-18T18:45:59.381Z,52.05
2023-03-18T18:47:02.466Z,52.80
2023-03-18T18:48:14.211Z,52.24
2023-03-18T18:49:23.027Z,52.52
2023-03-18T18:50:35.541Z,52.34
2023-03-18T18:51:38.373Z,52.52
2023-03-18T18:52:41.688Z,52.69
2023-03-18T18:53:45.765Z,52.39
2023-03-18T18:54:49.885Z,52.29
2023-03-18T18:55:55.762Z,52.56
2023-03-18T18:56:58.988Z,52.67
2023-03-18T18:58:01.787Z,52.84
2023-03-18T18:59:24.952Z,52.38
2023-03-18T19:00:28.693Z,52.52
2023-03-18T19:01:31.644Z,53.01
2023-03-18T19:02:35.666Z,52.90
2023-03-18T19:03:41.705Z,52.67
2023-03-18T19:04:44.925Z,52.70
2023-03-18T19:05:51.285Z,52.92
2023-03-18T19:06:54.567Z,52.91
2023-03-18T19:07:57.990Z,52.96
2023-03-18T19:09:03.866Z,52.75
2023-03-18T19:10:08.446Z,52.83
2023-03-18T19:11:11.662Z,52.79
2023-03-18T19:12:16.340Z,52.95
2023-03-18T19:13:19.650Z,53.00
2023-03-18T19:14:25.528Z,53.12
2023-03-18T19:15:29.237Z,53.26
2023-03-18T19:16:34.424Z,53.12
2023-03-18T19:17:40.983Z,52.96
2023-03-18T19:18:44.111Z,53.41
2023-03-18T19:19:48.127Z,53.87
2023-03-18T19:20:52.985Z,53.52
2023-03-18T19:21:57.627Z,53.23
2023-03-18T19:23:00.594Z,53.41
2023-03-18T19:24:31.626Z,53.40
2023-03-18T19:25:35.319Z,53.56
2023-03-18T19:26:38.388Z,53.69
2023-03-18T19:27:41.997Z,54.09
2023-03-18T19:28:55.337Z,54.07
2023-03-18T19:30:05.525Z,53.96
2023-03-18T19:31:09.653Z,54.08
2023-03-18T19:32:20.947Z,54.02
2023-03-18T19:33:23.929Z,54.31
2023-03-18T19:34:26.975Z,54.29
2023-03-18T19:35:30.007Z,54.22
2023-03-18T19:36:41.548Z,54.15
2023-03-18T19:37:47.335Z,54.49
2023-03-18T19:38:50.776Z,54.14
2023-03-18T19:39:55.464Z,54.43
2023-03-18T19:40:58.510Z,54.35
2023-03-18T19:42:01.855Z,54.39
2023-03-18T19:43:14.946Z,54.41
2023-03-18T19:44:26.982Z,54.59
2023-03-18T19:45:30.150Z,54.86
2023-03-18T19:46:39.073Z,54.62
2023-03-18T19:47:42.672Z,54.39
2023-03-18T19:48:47.025Z,55.11
2023-03-18T19:49:50.892Z,54.82
2023-03-18T19:50:56.073Z,54.95
2023-03-18T19:52:12.116Z,54.87
2023-03-18T19:53:17.791Z,55.07
2023-03-18T19:54:27.247Z,54.77
2023-03-18T19:55:30.873Z,54.43
2023-03-18T19:56:33.783Z,54.82
2023-03-18T19:57:37.210Z,55.11
2023-03-18T19:58:40.163Z,55.03
2023-03-18T19:59:46.021Z,55.41
2023-03-18T20:00:49.726Z,55.32
2023-03-18T20:01:52.648Z,55.20
2023-03-18T20:02:55.619Z,54.95
2023-03-18T20:03:59.033Z,54.80
2023-03-18T20:05:14.436Z,55.07
2023-03-18T20:06:17.476Z,55.14
2023-03-18T20:07:22.550Z,54.96
2023-03-18T20:08:25.983Z,54.96
2023-03-18T20:09:30.435Z,55.23
2023-03-18T20:10:33.491Z,55.21
2023-03-18T20:11:36.425Z,55.35
2023-03-18T20:12:42.138Z,55.14
2023-03-18T20:13:45.209Z,55.26
2023-03-18T20:14:48.686Z,55.09
2023-03-18T20:15:51.872Z,55.30
2023-03-18T20:16:54.995Z,55.27
2023-03-18T20:18:00.610Z,55.28
2023-03-18T20:19:03.610Z,55.13
2023-03-18T20:20:12.976Z,55.47
2023-03-18T20:21:25.462Z,55.64
2023-03-18T20:22:34.570Z,55.53
2023-03-18T20:23:37.589Z,55.12
2023-03-18T20:24:40.462Z,55.16
2023-03-18T20:25:46.989Z,55.08
2023-03-18T20:26:50.758Z,55.08
2023-03-18T20:27:57.198Z,54.96
2023-03-18T20:29:00.404Z,54.87
2023-03-18T20:30:20.839Z,54.95
2023-03-18T20:31:24.160Z,54.93
2023-03-18T20:32:28.164Z,54.64
2023-03-18T20:33:32.436Z,54.90
2023-03-18T20:34:38.331Z,54.78
2023-03-18T20:35:44.109Z,54.40
2023-03-18T20:36:47.145Z,54.60
2023-03-18T20:37:50.133Z,54.42
2023-03-18T20:38:52.981Z,54.35
2023-03-18T20:39:55.786Z,54.13
2023-03-18T20:40:59.590Z,54.23
2023-03-18T20:42:03.253Z,54.30
2023-03-18T20:43:06.684Z,54.13
2023-03-18T20:44:12.900Z,54.16
2023-03-18T20:45:16.968Z,53.97
2023-03-18T20:46:23.769Z,54.23
2023-03-18T20:47:28.139Z,54.23
2023-03-18T20:48:31.320Z,53.85
2023-03-18T20:49:34.580Z,54.10
2023-03-18T20:50:37.803Z,53.90
2023-03-18T20:52:07.567Z,53.87
2023-03-18T20:53:24.383Z,53.92
2023-03-18T20:54:31.672Z,53.54
2023-03-18T20:55:36.015Z,54.24
2023-03-18T20:56:41.709Z,53.60
2023-03-18T20:57:46.411Z,53.66
2023-03-18T20:58:50.540Z,53.76
2023-03-18T20:59:53.420Z,53.67
2023-03-18T21:00:56.768Z,53.69
2023-03-18T21:01:59.963Z,53.81
2023-03-18T21:03:03.415Z,53.21
2023-03-18T21:04:07.779Z,53.56
2023-03-18T21:05:11.428Z,53.48
2023-03-18T21:06:19.131Z,53.65
2023-03-18T21:07:22.343Z,53.38
2023-03-18T21:08:27.109Z,53.10
2023-03-18T21:09:30.230Z,53.54
2023-03-18T21:10:37.245Z,52.99
2023-03-18T21:11:40.581Z,53.27
2023-03-18T21:12:43.951Z,53.13
2023-03-18T21:13:46.786Z,53.22
2023-03-18T21:14:50.673Z,53.27
2023-03-18T21:15:55.117Z,53.35
2023-03-18T21:16:58.055Z,53.15
2023-03-18T21:18:01.400Z,53.33
2023-03-18T21:19:04.284Z,53.22
2023-03-18T21:20:21.399Z,53.10
2023-03-18T21:21:38.982Z,52.86
2023-03-18T21:22:42.608Z,53.19
2023-03-18T21:23:45.556Z,52.86
2023-03-18T21:24:49.100Z,52.93
2023-03-18T21:25:54.990Z,52.84
2023-03-18T21:27:04.866Z,53.14
2023-03-18T21:28:14.611Z,52.96
2023-03-18T21:29:18.015Z,52.74
2023-03-18T21:30:22.680Z,53.06
2023-03-18T21:31:31.486Z,52.97
2023-03-18T21:32:37.355Z,53.11
2023-03-18T21:33:43.018Z,53.22
2023-03-18T21:34:46.115Z,52.93
2023-03-18T21:35:51.684Z,53.01
2023-03-18T21:36:54.733Z,52.89
2023-03-18T21:37:57.932Z,52.94
2023-03-18T21:39:01.280Z,53.12
2023-03-18T21:40:04.994Z,52.77
2023-03-18T21:41:22.915Z,52.87
2023-03-18T21:42:29.665Z,52.80
2023-03-18T21:43:40.573Z,53.02
2023-03-18T21:44:43.509Z,53.15
2023-03-18T21:45:48.588Z,53.09
2023-03-18T21:46:51.540Z,53.03
2023-03-18T21:47:54.583Z,53.10
2023-03-18T21:48:57.466Z,53.23
2023-03-18T21:50:00.333Z,53.04
2023-03-18T21:51:03.911Z,53.52
2023-03-18T21:52:08.305Z,52.97
2023-03-18T21:53:13.154Z,53.17
2023-03-18T21:54:19.647Z,53.47
2023-03-18T21:55:23.316Z,52.99
2023-03-18T21:56:27.276Z,53.09
2023-03-18T21:57:30.595Z,53.45
2023-03-18T21:58:33.506Z,53.30
2023-03-18T21:59:36.361Z,53.57
2023-03-18T22:00:41.783Z,53.34
2023-03-18T22:01:44.846Z,53.53
2023-03-18T22:02:48.315Z,53.36
2023-03-18T22:03:53.863Z,53.28
2023-03-18T22:05:02.218Z,53.56
2023-03-18T22:06:05.321Z,53.57
2023-03-18T22:07:16.346Z,53.33
2023-03-18T22:08:20.646Z,53.58
2023-03-18T22:09:24.309Z,53.85
2023-03-18T22:10:27.220Z,53.65
2023-03-18T22:11:30.104Z,53.30
2023-03-18T22:12:34.066Z,53.88
2023-03-18T22:13:36.938Z,53.84
2023-03-18T22:14:39.810Z,53.79
2023-03-18T22:15:43.018Z,53.83
2023-03-18T22:16:46.139Z,54.04
2023-03-18T22:17:49.100Z,54.15
2023-03-18T22:18:52.061Z,53.73
2023-03-18T22:19:56.684Z,53.81
2023-03-18T22:20:59.641Z,54.15
2023-03-18T22:22:02.562Z,54.18
2023-03-18T22:23:23.686Z,53.99
2023-03-18T22:24:26.525Z,54.20
2023-03-18T22:25:36.976Z,54.15
2023-03-18T22:26:39.823Z,54.20
2023-03-18T22:27:42.629Z,54.59
2023-03-18T22:28:46.462Z,54.32
2023-03-18T22:29:51.390Z,54.27
2023-03-18T22:30:57.725Z,54.39
2023-03-18T22:32:01.060Z,54.64
2023-03-18T22:33:05.666Z,54.54
2023-03-18T22:34:23.667Z,54.75
2023-03-18T22:35:29.021Z,54.85
2023-03-18T22:36:31.980Z,54.73
2023-03-18T22:37:35.157Z,54.73
2023-03-18T22:38:38.013Z,54.70
2023-03-18T22:39:43.068Z,54.71
2023-03-18T22:40:48.702Z,54.67
2023-03-18T22:41:51.730Z,55.03
2023-03-18T22:43:00.480Z,54.99
2023-03-18T22:44:03.690Z,54.91
2023-03-18T22:45:18.496Z,55.30
2023-03-18T22:46:21.340Z,55.18
2023-03-18T22:47:26.279Z,55.58
2023-03-18T22:48:29.694Z,55.69
2023-03-18T22:49:32.589Z,55.22
2023-03-18T22:50:35.589Z,55.54
2023-03-18T22:51:41.214Z,55.45
2023-03-18T22:52:45.293Z,55.45
2023-03-18T22:53:52.240Z,55.60
2023-03-18T22:55:01.164Z,55.85
2023-03-18T22:56:16.167Z,55.78
2023-03-18T22:57:22.814Z,55.36
2023-03-18T22:58:27.734Z,55.74
2023-03-18T22:59:34.003Z,55.84
2023-03-18T23:00:40.127Z,55.77
2023-03-18T23:01:43.414Z,55.84
2023-03-18T23:02:46.426Z,56.02
2023-03-18T23:03:49.553Z,56.00
2023-03-18T23:04:53.916Z,56.18
2023-03-18T23:05:59.466Z,56.05
2023-03-18T23:07:02.500Z,56.28
2023-03-18T23:08:06.167Z,56.09
2023-03-18T23:09:09.042Z,56.29
2023-03-18T23:10:12.469Z,56.36
2023-03-18T23:11:16.555Z,56.17
2023-03-18T23:12:20.136Z,56.14
2023-03-18T23:13:29.617Z,56.57
2023-03-18T23:14:32.937Z,56.39
2023-03-18T23:15:35.851Z,56.56
2023-03-18T23:16:38.712Z,56.52
2023-03-18T23:17:41.673Z,56.59
2023-03-18T23:18:44.677Z,56.49
2023-03-18T23:19:48.076Z,56.46
2023-03-18T23:20:51.907Z,56.43
2023-03-18T23:21:54.773Z,56.54
2023-03-18T23:22:57.715Z,56.64
2023-03-18T23:24:00.865Z,56.85
2023-03-18T23:25:04.129Z,56.64
2023-03-18T23:26:07.166Z,56.67
2023-03-18T23:27:10.309Z,56.93
2023-03-18T23:28:14.919Z,56.69
2023-03-18T23:29:17.682Z,57.16
2023-03-18T23:30:21.008Z,57.06
2023-03-18T23:31:24.586Z,56.89
2023-03-18T23:32:28.500Z,56.90
2023-03-18T23:33:32.070Z,56.71
2023-03-18T23:34:34.863Z,56.95
2023-03-18T23:35:40.173Z,56.94
2023-03-18T23:36:43.636Z,56.90
2023-03-18T23:37:46.531Z,56.86
2023-03-18T23:38:49.326Z,56.88
2023-03-18T23:39:52.198Z,56.77
2023-03-18T23:40:55.617Z,56.88
2023-03-18T23:41:59.574Z,57.06
2023-03-18T23:43:02.898Z,56.83
2023-03-18T23:44:06.030Z,56.68
2023-03-18T23:45:09.377Z,56.92
2023-03-18T23:46:12.391Z,56.93
2023-03-18T23:47:16.761Z,56.95
2023-03-18T23:48:19.679Z,56.86
2023-03-18T23:49:22.657Z,56.77
2023-03-18T23:50:25.710Z,56.81
2023-03-18T23:51:28.710Z,56.89
2023-03-18T23:52:31.662Z,56.89
2023-03-18T23:53:34.520Z,56.84
2023-03-18T23:54:39.292Z,56.99
2023-03-18T23:55:42.465Z,56.73
2023-03-18T23:56:45.589Z,56.77
2023-03-18T23:57:48.482Z,57.06
2023-03-18T23:58:51.668Z,56.90
2023-03-18T23:59:54.760Z,57.01
